Time;durP1;ratioP1;P1;durP2;ratioP2;P2;SDS_P1;SDS_P2;PMS_P1;PMS_P2;Temp;Humidity;BMP_temperature;BMP_pressure;BME280_temperature;BME280_humidity;BME280_pressure;Samples;Min_cycle;Max_cycle;Signal;HPM_P1;HPM_P2
2021/01/15 00:01:23;;;;;;;7.96;4.33;;;;;;;0.34;87.48;99263.44;2282785;67;21252;-75
2021/01/15 00:04:25;;;;;;;;;;;;;;;0.29;87.70;99265.84;2284278;70;20558;-75
2021/01/15 00:07:30;;;;;;;6.40;3.71;;;;;;;0.31;87.86;99276.97;2283745;70;20142;-76
2021/01/15 00:10:32;;;;;;;6.19;3.92;;;;;;;0.30;87.87;99263.34;2283331;70;20225;-75
2021/01/15 00:13:33;;;;;;;4.66;3.93;;;;;;;0.31;87.87;99274.44;2283766;70;20200;-75
2021/01/15 00:16:35;;;;;;;8.92;4.18;;;;;;;0.30;87.79;99275.25;2283730;67;20707;-75
2021/01/15 00:19:36;;;;;;;9.84;4.19;;;;;;;0.33;87.80;99282.13;2284079;70;20216;-75
2021/01/15 00:22:42;;;;;;;8.86;4.60;;;;;;;0.30;87.73;99278.66;2283792;69;20166;-76
2021/01/15 00:25:44;;;;;;;7.80;4.73;;;;;;;0.30;87.74;99280.34;2284457;70;20303;-75
2021/01/15 00:28:46;;;;;;;8.13;5.06;;;;;;;0.30;87.67;99282.91;2284633;70;20360;-75
2021/01/15 00:31:48;;;;;;;6.78;4.13;;;;;;;0.28;87.60;99282.84;2279042;67;21382;-75
2021/01/15 00:34:50;;;;;;;9.64;5.53;;;;;;;0.30;87.57;99282.91;2281704;69;20386;-75
2021/01/15 00:37:52;;;;;;;8.78;4.84;;;;;;;0.28;87.46;99284.53;2284470;70;20151;-75
2021/01/15 00:41:08;;;;;;;9.13;4.76;;;;;;;0.27;87.30;99288.78;2283916;70;20154;-74
2021/01/15 00:44:10;;;;;;;9.41;5.19;;;;;;;0.27;87.30;99293.03;2287169;69;20685;-74
2021/01/15 00:47:12;;;;;;;7.60;4.66;;;;;;;0.23;87.09;99293.75;2290995;66;20204;-74
2021/01/15 00:50:14;;;;;;;6.07;3.60;;;;;;;0.23;87.16;99297.16;2290377;69;20158;-74
2021/01/15 00:53:16;;;;;;;8.21;4.89;;;;;;;0.22;87.19;99292.00;2291004;69;20167;-74
2021/01/15 00:56:18;;;;;;;6.72;4.62;;;;;;;0.22;87.19;99294.56;2291362;69;20501;-74
2021/01/15 00:59:20;;;;;;;9.71;5.06;;;;;;;0.20;87.08;99296.19;2290463;69;20211;-74
2021/01/15 01:02:21;;;;;;;6.62;4.53;;;;;;;0.19;87.07;99297.00;2290795;67;20860;-74
2021/01/15 01:05:25;;;;;;;7.57;4.41;;;;;;;0.16;86.92;99307.94;2289838;69;20268;-74
2021/01/15 01:08:26;;;;;;;8.23;3.97;;;;;;;0.15;87.10;99311.31;2290582;69;20151;-75
2021/01/15 01:11:29;;;;;;;8.50;4.62;;;;;;;0.15;87.03;99297.69;2290815;69;20154;-74
2021/01/15 01:14:31;;;;;;;6.98;4.30;;;;;;;0.14;87.02;99303.59;2289559;69;20215;-74
2021/01/15 01:17:32;;;;;;;7.00;4.39;;;;;;;0.14;87.05;99311.25;2289912;67;21490;-74
2021/01/15 01:20:34;;;;;;;7.53;4.93;;;;;;;0.13;87.00;99307.84;2290222;69;20337;-74
2021/01/15 01:23:36;;;;;;;5.29;3.71;;;;;;;0.11;86.97;99314.59;2291017;69;20150;-74
2021/01/15 01:26:37;;;;;;;6.76;4.47;;;;;;;0.10;86.94;99320.50;2289285;69;20158;-74
2021/01/15 01:29:39;;;;;;;6.37;3.79;;;;;;;0.08;86.85;99327.25;2290057;69;20150;-74
2021/01/15 01:32:41;;;;;;;9.36;5.38;;;;;;;0.06;86.85;99321.22;2289663;67;20178;-74
2021/01/15 01:35:43;;;;;;;7.63;3.76;;;;;;;0.07;86.84;99329.75;2290414;69;20154;-74
2021/01/15 01:38:45;;;;;;;9.40;5.07;;;;;;;0.02;86.71;99344.91;2289016;69;20517;-74
2021/01/15 01:41:46;;;;;;;5.99;3.62;;;;;;;-0.01;86.68;99343.06;2289810;69;20183;-74
2021/01/15 01:44:48;;;;;;;2.90;2.24;;;;;;;-0.02;86.73;99343.03;2290014;69;20176;-73
2021/01/15 01:47:51;;;;;;;3.21;2.69;;;;;;;-0.03;86.73;99349.81;2289897;67;21993;-74
2021/01/15 01:50:53;;;;;;;3.89;2.44;;;;;;;-0.06;86.51;99354.81;2290344;69;20151;-74
2021/01/15 01:53:55;;;;;;;4.60;2.49;;;;;;;-0.07;86.37;99359.84;2289524;69;20182;-74
2021/01/15 01:56:57;;;;;;;4.67;3.33;;;;;;;-0.08;86.12;99364.09;2291401;69;20169;-73
2021/01/15 01:59:59;;;;;;;4.88;2.44;;;;;;;-0.07;86.02;99355.63;2289543;69;20654;-73
2021/01/15 02:03:02;;;;;;;4.54;2.48;;;;;;;-0.09;85.81;99366.59;2289409;68;27400;-74
2021/01/15 02:06:04;;;;;;;3.68;1.94;;;;;;;-0.08;85.64;99375.97;2289415;69;20369;-73
2021/01/15 02:09:07;;;;;;;2.82;2.34;;;;;;;-0.11;85.44;99374.19;2290038;69;20212;-74
2021/01/15 02:12:15;;;;;;;4.51;1.93;;;;;;;-0.11;85.34;99376.75;2289162;69;20281;-74
2021/01/15 02:15:37;;;;;;;6.48;3.03;;;;;;;-0.11;85.14;99375.88;2290083;66;21708;-74
2021/01/15 02:18:50;;;;;;;2.78;2.08;;;;;;;-0.10;85.01;99383.59;2290058;69;20154;-73
2021/01/15 02:22:31;;;;;;;5.03;2.92;;;;;;;-0.11;84.71;99388.63;2289987;69;20636;-73
2021/01/15 02:25:57;;;;;;;7.49;4.03;;;;;;;-0.11;84.33;99399.72;2286010;69;20162;-73
2021/01/15 02:29:20;;;;;;;6.97;3.51;;;;;;;-0.11;84.18;99398.84;2291320;69;20166;-73
2021/01/15 02:32:53;;;;;;;7.14;3.20;;;;;;;-0.12;83.91;99400.53;2290029;67;23482;-73
2021/01/15 02:36:05;;;;;;;4.59;2.62;;;;;;;-0.11;83.77;99403.94;2289985;69;20170;-73
2021/01/15 02:39:37;;;;;;;2.39;2.10;;;;;;;-0.09;83.79;99404.88;2290063;69;20174;-73
2021/01/15 02:42:40;;;;;;;2.28;1.79;;;;;;;-0.10;83.69;99415.88;2290661;69;20229;-72
2021/01/15 02:45:45;;;;;;;5.50;1.80;;;;;;;-0.11;83.37;99419.25;2288948;66;22655;-72
2021/01/15 02:48:50;;;;;;;2.61;1.54;;;;;;;-0.13;83.26;99421.75;2289943;69;20196;-73
2021/01/15 02:51:53;;;;;;;3.16;1.96;;;;;;;-0.17;82.62;99429.25;2289639;69;20185;-73
2021/01/15 02:54:54;;;;;;;2.42;1.41;;;;;;;-0.18;82.64;99430.00;2290046;69;20200;-72
2021/01/15 02:57:56;;;;;;;5.52;2.73;;;;;;;-0.19;82.74;99436.81;2289924;69;20138;-73
2021/01/15 03:00:58;;;;;;;5.19;3.08;;;;;;;-0.20;82.60;99431.63;2287842;67;27905;-72
2021/01/15 03:04:18;;;;;;;4.97;2.56;;;;;;;-0.19;82.39;99439.34;2289944;69;20218;-73
2021/01/15 03:07:23;;;;;;;4.76;2.60;;;;;;;-0.19;82.47;99444.47;2290148;69;20659;-73
2021/01/15 03:10:25;;;;;;;2.47;2.00;;;;;;;-0.19;82.42;99453.78;2289510;69;20155;-72
2021/01/15 03:13:32;;;;;;;3.82;2.48;;;;;;;-0.20;82.35;99464.81;2290152;69;20355;-72
2021/01/15 03:16:35;;;;;;;3.74;1.76;;;;;;;-0.23;81.97;99457.03;2289021;67;21194;-72
2021/01/15 03:19:38;;;;;;;1.36;1.26;;;;;;;-0.26;81.80;99467.13;2289559;69;20188;-72
2021/01/15 03:22:44;;;;;;;2.86;1.67;;;;;;;-0.25;81.98;99461.22;2289491;69;20169;-72
2021/01/15 03:25:46;;;;;;;1.67;1.43;;;;;;;-0.28;81.93;99467.06;2290066;69;20146;-72
2021/01/15 03:28:48;;;;;;;2.29;1.52;;;;;;;-0.31;81.92;99467.81;2289971;69;20176;-72
2021/01/15 03:31:49;;;;;;;3.62;1.68;;;;;;;-0.31;81.75;99474.59;2288850;67;21731;-73
2021/01/15 03:34:51;;;;;;;2.26;1.79;;;;;;;-0.37;81.42;99482.00;2289798;69;20625;-72
2021/01/15 03:37:57;;;;;;;2.44;1.42;;;;;;;-0.40;81.18;99486.97;2289628;69;20146;-72
2021/01/15 03:41:00;;;;;;;2.66;1.54;;;;;;;-0.43;81.11;99491.97;2289575;69;20164;-72
2021/01/15 03:44:02;;;;;;;2.04;1.20;;;;;;;-0.44;81.33;99498.75;2293748;69;20169;-72
2021/01/15 03:47:04;;;;;;;1.48;1.06;;;;;;;-0.49;81.11;99500.25;2289963;66;23291;-72
2021/01/15 03:50:06;;;;;;;1.57;1.30;;;;;;;-0.53;81.12;99508.59;2290476;69;20154;-72
2021/01/15 03:53:08;;;;;;;5.44;1.24;;;;;;;-0.57;80.77;99513.47;2289997;69;20398;-72
2021/01/15 03:56:10;;;;;;;1.10;1.00;;;;;;;-0.61;80.94;99509.94;2290029;69;20135;-72
2021/01/15 03:59:11;;;;;;;2.01;1.18;;;;;;;-0.61;81.06;99515.03;2290047;69;20208;-72
2021/01/15 04:02:13;;;;;;;0.84;0.82;;;;;;;-0.64;80.83;99520.00;2290132;67;21401;-72
2021/01/15 04:05:15;;;;;;;3.26;1.10;;;;;;;-0.65;80.89;99513.16;2289223;69;20648;-72
2021/01/15 04:08:16;;;;;;;1.99;0.92;;;;;;;-0.69;80.63;99514.72;2290298;69;20199;-72
2021/01/15 04:11:19;;;;;;;4.29;1.61;;;;;;;-0.73;80.43;99519.59;2290751;69;20138;-72
2021/01/15 04:14:21;;;;;;;2.04;1.18;;;;;;;-0.76;80.42;99516.94;2290149;69;20177;-72
2021/01/15 04:17:23;;;;;;;2.27;1.24;;;;;;;-0.83;80.09;99518.34;2287998;67;48594;-72
2021/01/15 04:20:25;;;;;;;2.59;2.09;;;;;;;-0.86;80.48;99523.34;2289721;69;20194;-72
2021/01/15 04:23:26;;;;;;;1.34;1.10;;;;;;;-0.89;80.36;99525.75;2290000;69;20163;-72
2021/01/15 04:26:28;;;;;;;6.16;2.78;;;;;;;-0.90;80.43;99526.53;2289851;69;20294;-72
2021/01/15 04:29:30;;;;;;;2.07;1.60;;;;;;;-0.94;80.05;99527.22;2289958;69;20190;-72
2021/01/15 04:32:33;;;;;;;1.27;1.01;;;;;;;-0.94;80.31;99539.94;2289605;67;20662;-72
2021/01/15 04:35:34;;;;;;;2.23;1.07;;;;;;;-0.97;80.11;99550.03;2289988;69;20172;-72
2021/01/15 04:38:36;;;;;;;1.42;1.29;;;;;;;-1.03;79.91;99545.53;2289686;69;20511;-72
2021/01/15 04:41:41;;;;;;;2.38;1.30;;;;;;;-1.05;79.93;99549.69;2289408;69;20172;-72
2021/01/15 04:44:46;;;;;;;1.47;1.10;;;;;;;-1.05;80.20;99551.38;2290126;69;20182;-72
2021/01/15 04:47:48;;;;;;;4.08;1.70;;;;;;;-1.05;80.40;99562.44;2289737;67;20989;-72
2021/01/15 04:50:50;;;;;;;2.98;1.33;;;;;;;-1.10;80.18;99560.47;2289920;69;20184;-72
2021/01/15 04:54:01;;;;;;;1.79;1.26;;;;;;;-1.10;79.95;99563.00;2295877;69;20150;-72
2021/01/15 04:57:11;;;;;;;2.68;1.20;;;;;;;-1.14;79.61;99567.09;2288741;69;20170;-72
2021/01/15 05:00:15;;;;;;;1.54;1.12;;;;;;;-1.18;79.48;99575.44;2288153;67;20604;-72
2021/01/15 05:03:23;;;;;;;2.32;1.20;;;;;;;-1.20;79.42;99582.13;2288513;69;20270;-71
2021/01/15 05:06:29;;;;;;;1.87;1.40;;;;;;;-1.24;79.47;99580.25;2287982;69;20158;-72
2021/01/15 05:09:55;;;;;;;1.73;1.51;;;;;;;-1.24;79.62;99588.78;2288835;69;20586;-72
2021/01/15 05:12:57;;;;;;;2.09;1.37;;;;;;;-1.26;79.49;99598.03;2288748;69;20706;-72
2021/01/15 05:16:01;;;;;;;1.48;1.32;;;;;;;-1.27;79.77;99596.25;2288255;67;21105;-72
2021/01/15 05:19:03;;;;;;;3.27;1.48;;;;;;;-1.28;79.69;99596.19;2289365;69;20647;-72
2021/01/15 05:22:06;;;;;;;1.70;1.60;;;;;;;-1.29;79.75;99613.13;2289008;69;20138;-72
2021/01/15 05:25:08;;;;;;;1.77;1.07;;;;;;;-1.29;79.50;99619.91;2283363;69;20511;-72
2021/01/15 05:28:10;;;;;;;2.37;1.60;;;;;;;-1.29;79.64;99614.81;2288303;69;20142;-71
2021/01/15 05:31:12;;;;;;;2.08;1.31;;;;;;;-1.38;79.25;99617.81;2287953;67;23414;-72
2021/01/15 05:34:14;;;;;;;4.67;1.52;;;;;;;-1.34;79.47;99629.03;2288946;69;20271;-71
2021/01/15 05:37:20;;;;;;;2.00;1.53;;;;;;;-1.30;79.60;99638.53;2288885;69;20162;-72
2021/01/15 05:40:47;;;;;;;1.70;1.38;;;;;;;-1.27;79.51;99642.09;2289862;69;20328;-71
2021/01/15 05:43:48;;;;;;;1.37;0.99;;;;;;;-1.30;79.10;99641.09;2289066;69;20167;-72
2021/01/15 05:46:50;;;;;;;2.96;1.44;;;;;;;-1.29;78.96;99651.34;2288380;67;20533;-71
2021/01/15 05:49:56;;;;;;;3.61;1.06;;;;;;;-1.29;78.48;99661.53;2288995;69;20194;-71
2021/01/15 05:53:01;;;;;;;2.03;1.13;;;;;;;-1.29;78.61;99663.19;2288427;69;20210;-71
2021/01/15 05:56:04;;;;;;;1.40;1.19;;;;;;;-1.29;79.03;99661.53;2289503;69;20581;-72
2021/01/15 05:59:09;;;;;;;1.81;1.20;;;;;;;-1.34;78.94;99672.31;2288541;69;20164;-71
2021/01/15 06:02:12;;;;;;;1.48;1.10;;;;;;;-1.32;78.85;99673.25;2288609;67;23379;-71
2021/01/15 06:05:18;;;;;;;2.00;1.20;;;;;;;-1.30;78.93;99680.16;2287998;69;20174;-71
2021/01/15 06:08:20;;;;;;;3.04;1.04;;;;;;;-1.35;78.29;99678.22;2289350;69;20166;-71
2021/01/15 06:11:23;;;;;;;1.06;0.97;;;;;;;-1.39;78.34;99674.66;2288439;69;20190;-71
2021/01/15 06:14:29;;;;;;;1.73;1.20;;;;;;;-1.40;78.50;99682.22;2288554;69;20634;-71
2021/01/15 06:17:38;;;;;;;2.12;1.18;;;;;;;-1.37;78.87;99685.78;2287607;67;20182;-71
2021/01/15 06:20:43;;;;;;;1.98;1.15;;;;;;;-1.40;78.78;99695.81;2288194;69;20146;-71
2021/01/15 06:23:47;;;;;;;1.70;1.08;;;;;;;-1.37;78.86;99693.41;2288925;69;20198;-71
2021/01/15 06:27:03;;;;;;;1.23;0.90;;;;;;;-1.36;78.69;99701.94;2288325;69;20176;-71
2021/01/15 06:30:08;;;;;;;1.31;0.98;;;;;;;-1.40;78.84;99705.13;2288670;69;20651;-72
2021/01/15 06:33:19;;;;;;;1.56;1.46;;;;;;;-1.41;78.62;99708.50;2286861;67;20800;-71
2021/01/15 06:36:43;;;;;;;2.61;0.99;;;;;;;-1.41;78.63;99716.13;2288442;69;20258;-71
2021/01/15 06:40:09;;;;;;;2.70;1.21;;;;;;;-1.41;78.61;99718.69;2290458;69;20207;-72
2021/01/15 06:43:21;;;;;;;3.01;1.11;;;;;;;-1.38;78.83;99726.47;2290044;69;20174;-71
2021/01/15 06:46:34;;;;;;;3.83;1.24;;;;;;;-1.37;78.97;99731.63;2288034;67;21305;-71
2021/01/15 06:49:37;;;;;;;2.86;1.42;;;;;;;-1.37;78.86;99739.25;2289896;69;20172;-71
2021/01/15 06:52:42;;;;;;;2.23;1.24;;;;;;;-1.36;78.35;99738.47;2290151;69;20178;-71
2021/01/15 06:55:47;;;;;;;1.76;1.09;;;;;;;-1.32;78.65;99749.66;2289463;69;20142;-71
2021/01/15 06:58:51;;;;;;;2.77;1.16;;;;;;;-1.36;78.33;99756.28;2290234;69;20714;-72
2021/01/15 07:02:08;;;;;;;1.97;1.59;;;;;;;-1.39;78.38;99768.00;2289366;67;21290;-71
2021/01/15 07:05:15;;;;;;;2.07;1.11;;;;;;;-1.39;78.67;99776.53;2289109;69;20187;-71
2021/01/15 07:08:16;;;;;;;3.20;1.57;;;;;;;-1.42;78.79;99781.47;2289691;69;20164;-71
2021/01/15 07:11:22;;;;;;;1.36;1.17;;;;;;;-1.50;78.33;99789.50;2289517;69;20165;-72
2021/01/15 07:14:27;;;;;;;1.98;1.20;;;;;;;-1.64;77.83;99793.91;2289608;69;20192;-72
2021/01/15 07:17:37;;;;;;;3.28;1.93;;;;;;;-1.67;78.04;99798.84;2290434;67;25394;-72
2021/01/15 07:20:48;;;;;;;2.33;1.40;;;;;;;-1.77;78.62;99800.06;2289950;69;20146;-72
2021/01/15 07:23:54;;;;;;;1.66;1.31;;;;;;;-1.79;79.25;99809.31;2290576;69;20170;-74
2021/01/15 07:26:56;;;;;;;1.71;1.53;;;;;;;-1.85;79.79;99816.59;2289916;69;20219;-73
2021/01/15 07:29:59;;;;;;;2.44;1.51;;;;;;;-1.92;80.21;99819.63;2290087;69;20176;-74
2021/01/15 07:33:06;;;;;;;1.84;1.30;;;;;;;-1.98;80.36;99830.34;2289753;67;20271;-73
2021/01/15 07:36:08;;;;;;;2.37;1.49;;;;;;;-1.97;80.34;99841.44;2289934;69;20150;-72
2021/01/15 07:39:12;;;;;;;1.74;1.58;;;;;;;-1.91;80.63;99847.72;2289499;69;20213;-71
2021/01/15 07:42:39;;;;;;;2.44;1.24;;;;;;;-1.77;80.58;99856.06;2290776;69;20529;-72
2021/01/15 07:45:42;;;;;;;2.01;1.30;;;;;;;-1.74;80.00;99852.81;2289900;67;20621;-71
2021/01/15 07:48:59;;;;;;;3.40;1.27;;;;;;;-1.69;79.75;99864.09;2289992;69;20341;-71
2021/01/15 07:52:04;;;;;;;1.62;1.24;;;;;;;-1.68;79.47;99876.00;2290761;69;20198;-72
2021/01/15 07:55:06;;;;;;;3.56;1.23;;;;;;;-1.60;79.42;99883.25;2289728;69;20551;-72
2021/01/15 07:58:08;;;;;;;1.74;1.38;;;;;;;-1.53;79.18;99892.94;2289863;69;20180;-72
2021/01/15 08:01:12;;;;;;;1.89;1.49;;;;;;;-1.51;78.94;99898.13;2288581;67;22558;-72
2021/01/15 08:04:15;;;;;;;1.47;1.16;;;;;;;-1.43;78.74;99903.63;2291064;69;20183;-72
2021/01/15 08:07:30;;;;;;;1.62;1.22;;;;;;;-1.41;78.65;99908.00;2290143;69;20170;-73
2021/01/15 08:10:32;;;;;;;3.53;1.54;;;;;;;-1.34;78.51;99909.16;2289050;69;20193;-72
2021/01/15 08:13:34;;;;;;;3.94;1.53;;;;;;;-1.28;78.18;99910.34;2295230;69;20173;-78
2021/01/15 08:16:43;;;;;;;1.94;1.38;;;;;;;-1.25;77.86;99917.28;2289738;67;37080;-73
2021/01/15 08:19:46;;;;;;;2.51;1.58;;;;;;;-1.19;77.99;99919.28;2290218;69;20218;-72
2021/01/15 08:22:48;;;;;;;1.91;1.59;;;;;;;-1.20;77.77;99923.50;2289672;69;20150;-75
2021/01/15 08:25:53;;;;;;;3.19;1.62;;;;;;;-1.06;78.17;99936.94;2290739;69;20158;-75
2021/01/15 08:28:54;;;;;;;2.28;1.19;;;;;;;-0.99;77.98;99937.31;2290554;69;20243;-76
2021/01/15 08:31:58;;;;;;;3.36;1.48;;;;;;;-0.88;77.73;99950.59;2292525;67;20228;-71
2021/01/15 08:35:01;;;;;;;4.76;1.34;;;;;;;-0.74;77.29;99947.03;2289885;69;20249;-70
2021/01/15 08:38:03;;;;;;;2.07;1.38;;;;;;;-0.55;76.72;99951.34;2291346;69;20800;-71
2021/01/15 08:41:15;;;;;;;2.79;1.97;;;;;;;-0.49;76.23;99955.88;2289769;69;20850;-71
2021/01/15 08:44:17;;;;;;;2.90;1.30;;;;;;;-0.45;75.70;99966.31;2290073;69;20190;-71
2021/01/15 08:47:20;;;;;;;3.23;1.90;;;;;;;-0.44;75.33;99962.06;2288974;67;20162;-71
2021/01/15 08:50:26;;;;;;;2.94;1.64;;;;;;;-0.54;75.24;99970.94;2289985;69;21073;-71
2021/01/15 08:53:43;;;;;;;1.86;1.50;;;;;;;-0.54;75.46;99977.72;2289822;69;20519;-71
2021/01/15 08:56:46;;;;;;;5.53;1.73;;;;;;;-0.50;75.90;99977.97;2293615;69;20198;-71
2021/01/15 08:59:48;;;;;;;1.88;1.72;;;;;;;-0.49;75.81;99982.28;2290158;69;20146;-71
2021/01/15 09:02:52;;;;;;;2.00;1.52;;;;;;;-0.46;75.93;99991.75;2288740;67;21913;-71
2021/01/15 09:05:55;;;;;;;1.59;1.49;;;;;;;-0.37;75.92;100000.69;2289434;69;20176;-71
2021/01/15 09:09:00;;;;;;;3.13;1.41;;;;;;;-0.36;75.59;100001.56;2290845;69;20170;-71
2021/01/15 09:12:05;;;;;;;1.68;1.56;;;;;;;-0.31;74.99;100003.56;2288391;69;20305;-71
2021/01/15 09:15:17;;;;;;;2.04;1.76;;;;;;;-0.24;74.70;100014.94;2289649;69;20191;-71
2021/01/15 09:18:23;;;;;;;3.39;1.91;;;;;;;-0.20;74.44;100021.06;2289726;69;20262;-71
2021/01/15 09:21:25;;;;;;;3.12;1.88;;;;;;;-0.13;74.28;100030.78;2289580;69;20466;-71
2021/01/15 09:24:32;;;;;;;3.96;1.83;;;;;;;0.03;73.28;100027.28;2289313;69;20177;-72
2021/01/15 09:27:33;;;;;;;1.84;1.51;;;;;;;0.19;72.68;100035.75;2290230;69;20199;-71
2021/01/15 09:30:35;;;;;;;2.81;1.70;;;;;;;0.37;72.79;100040.84;2288993;67;20730;-72
2021/01/15 09:33:46;;;;;;;2.30;1.67;;;;;;;0.47;72.69;100043.00;2286757;69;20150;-72
2021/01/15 09:36:50;;;;;;;2.02;1.82;;;;;;;0.45;71.86;100042.03;2286848;69;20170;-71
2021/01/15 09:39:52;;;;;;;3.22;1.79;;;;;;;0.54;71.88;100049.28;2287934;69;20181;-71
2021/01/15 09:42:53;;;;;;;1.91;1.76;;;;;;;0.67;72.16;100066.03;2287467;69;20150;-71
2021/01/15 09:45:55;;;;;;;2.82;2.20;;;;;;;0.70;71.16;100061.91;2285909;67;21207;-71
2021/01/15 09:48:58;;;;;;;2.90;1.80;;;;;;;0.80;71.74;100068.34;2286928;69;20178;-71
2021/01/15 09:52:00;;;;;;;1.69;1.56;;;;;;;0.97;71.99;100069.09;2287373;69;20733;-71
2021/01/15 09:55:03;;;;;;;2.28;1.63;;;;;;;1.05;69.56;100083.94;2287423;69;20215;-71
2021/01/15 09:58:04;;;;;;;2.52;1.79;;;;;;;1.11;69.67;100084.25;2287093;69;20318;-71
2021/01/15 10:01:06;;;;;;;3.33;2.01;;;;;;;1.21;70.46;100091.50;2285781;67;22265;-71
2021/01/15 10:04:08;;;;;;;2.99;1.98;;;;;;;1.21;70.06;100096.63;2287184;69;20194;-72
2021/01/15 10:07:13;;;;;;;2.31;1.82;;;;;;;1.31;70.02;100097.91;2286891;69;20191;-71
2021/01/15 10:10:14;;;;;;;3.01;2.16;;;;;;;1.33;69.43;100109.06;2286555;69;20212;-71
2021/01/15 10:13:18;;;;;;;3.46;2.25;;;;;;;1.28;69.62;100109.69;2288206;69;20296;-71
2021/01/15 10:16:20;;;;;;;5.78;2.57;;;;;;;1.42;70.31;100116.25;2287653;67;20980;-71
2021/01/15 10:19:22;;;;;;;2.83;2.19;;;;;;;1.45;69.80;100119.84;2288778;69;20322;-71
2021/01/15 10:22:23;;;;;;;3.15;2.80;;;;;;;1.47;70.53;100125.03;2289131;69;20316;-71
2021/01/15 10:25:27;;;;;;;2.63;2.42;;;;;;;1.43;70.37;100118.00;2285881;69;20342;-71
2021/01/15 10:28:30;;;;;;;4.01;2.50;;;;;;;1.34;70.88;100123.63;2289401;69;20284;-78
2021/01/15 10:31:34;;;;;;;3.59;2.47;;;;;;;1.23;71.55;100124.81;2286648;67;20763;-79
2021/01/15 10:34:36;;;;;;;2.40;2.20;;;;;;;1.12;71.37;100120.91;2289457;69;20338;-79
2021/01/15 10:37:39;;;;;;;2.81;2.42;;;;;;;1.04;72.47;100129.91;2288090;69;20158;-79
2021/01/15 10:40:42;;;;;;;3.09;2.76;;;;;;;0.97;72.91;100125.34;2288918;69;21230;-78
2021/01/15 10:43:44;;;;;;;3.52;2.54;;;;;;;0.97;73.79;100118.53;2288448;69;20154;-79
2021/01/15 10:46:51;;;;;;;4.10;2.33;;;;;;;0.93;73.70;100126.00;2287839;67;20166;-78
2021/01/15 10:49:55;;;;;;;3.81;2.55;;;;;;;0.90;73.12;100122.50;2289218;69;20493;-79
2021/01/15 10:52:57;;;;;;;2.86;2.40;;;;;;;0.89;73.38;100127.53;2288424;69;20326;-79
2021/01/15 10:55:58;;;;;;;4.19;2.90;;;;;;;0.84;73.45;100122.22;2288999;69;20198;-79
2021/01/15 10:59:00;;;;;;;2.96;2.69;;;;;;;0.86;73.94;100122.28;2287995;69;20326;-82
2021/01/15 11:02:02;;;;;;;4.83;3.61;;;;;;;0.89;74.32;100130.09;2286171;67;21881;-79
2021/01/15 11:05:06;;;;;;;4.63;3.30;;;;;;;0.88;74.49;100129.22;2288328;69;20242;-79
2021/01/15 11:08:08;;;;;;;4.48;3.52;;;;;;;0.89;74.62;100124.97;2290087;69;20324;-80
2021/01/15 11:11:09;;;;;;;3.13;2.83;;;;;;;0.86;73.97;100137.63;2293838;69;20134;-80
2021/01/15 11:14:14;;;;;;;5.01;3.08;;;;;;;0.86;74.17;100140.16;2299575;69;20297;-81
2021/01/15 11:17:16;;;;;;;4.22;2.97;;;;;;;0.88;74.54;100141.13;2297484;67;20340;-81
2021/01/15 11:20:19;;;;;;;3.69;3.20;;;;;;;0.92;74.84;100148.16;2294602;69;20622;-81
2021/01/15 11:31:37;;;;;;;;;;;;;;;0.91;73.32;100156.63;2268451;70;20199;-79
2021/01/15 11:35:09;;;;;;;;;;;;;;;;;;;;;
2021/01/15 11:38:41;;;;;;;;;;;;;;;0.97;74.08;100156.03;2270853;70;20348;-80
2021/01/15 11:41:59;;;;;;;3.11;2.20;;;;;;;1.05;74.28;100154.69;2274204;70;20132;-80
2021/01/15 11:45:40;;;;;;;;;;;;;;;;;;;;;
2021/01/15 11:49:38;;;;;;;3.31;2.45;;;;;;;1.11;74.15;100154.97;2284911;70;20212;-80
2021/01/15 11:53:36;;;;;;;;;;;;;;;;;;;;;
2021/01/15 11:57:07;;;;;;;;;;;;;;;1.20;73.88;100157.94;2285171;70;20306;-79
2021/01/15 12:00:41;;;;;;;2.85;1.99;;;;;;;1.25;73.47;100164.13;2282210;69;20167;-78
2021/01/15 12:04:21;;;;;;;2.80;2.13;;;;;;;1.25;72.82;100161.56;2278418;70;21134;-80
2021/01/15 12:08:17;;;;;;;2.13;1.92;;;;;;;1.26;72.76;100155.66;2285355;70;20639;-80
2021/01/15 12:12:17;;;;;;;;;;;;;;;;;;;;;
2021/01/15 12:16:23;;;;;;;3.08;2.04;;;;;;;1.30;71.45;100152.44;2282644;69;20298;-80
2021/01/15 12:19:54;;;;;;;4.30;2.10;;;;;;;1.28;71.70;100151.50;2278271;70;20472;-80
2021/01/15 12:24:07;;;;;;;3.73;2.24;;;;;;;1.32;71.97;100150.81;2285882;70;20319;-80
2021/01/15 12:28:13;;;;;;;1.54;1.42;;;;;;;1.36;72.32;100151.81;2280934;70;21012;-80
2021/01/15 12:31:39;;;;;;;1.49;1.19;;;;;;;1.42;71.40;100155.50;2283283;70;20431;-80
2021/01/15 12:35:42;;;;;;;1.47;1.37;;;;;;;1.43;70.47;100152.16;2284281;69;20150;-80
2021/01/15 12:39:57;;;;;;;1.99;1.40;;;;;;;1.47;69.92;100160.84;2290462;70;20182;-81
2021/01/15 12:43:25;;;;;;;1.23;1.10;;;;;;;1.50;70.28;100150.75;2294780;69;20300;-80
2021/01/15 12:47:01;;;;;;;1.99;1.30;;;;;;;1.47;70.22;100156.63;2293304;69;20151;-80
2021/01/15 12:51:07;;;;;;;1.66;1.26;;;;;;;1.46;69.56;100154.00;2288987;69;20426;-80
2021/01/15 12:55:02;;;;;;;1.31;1.17;;;;;;;1.43;70.00;100151.28;2281226;69;20329;-81
2021/01/15 12:58:19;;;;;;;1.80;1.49;;;;;;;1.42;70.58;100149.53;2289462;69;20159;-80
2021/01/15 13:01:53;;;;;;;1.65;1.24;;;;;;;1.41;71.26;100156.31;2267728;67;89193;-79
2021/01/15 13:05:21;;;;;;;2.88;1.40;;;;;;;1.42;71.08;100147.84;2272678;70;20765;-80
2021/01/15 13:08:31;;;;;;;1.83;1.19;;;;;;;1.45;71.09;100159.91;2269220;70;20910;-79
2021/01/15 13:12:23;;;;;;;3.81;1.31;;;;;;;1.47;71.28;100161.72;2256668;70;20326;-80
2021/01/15 13:16:05;;;;;;;2.51;1.39;;;;;;;1.50;71.20;100161.88;2268227;70;20198;-80
2021/01/15 13:19:33;;;;;;;1.49;1.14;;;;;;;1.50;71.69;100163.53;2268100;70;20328;-72
2021/01/15 13:22:34;;;;;;;1.21;1.04;;;;;;;1.51;70.87;100168.72;2267753;70;20315;-72
2021/01/15 13:25:36;;;;;;;2.42;1.36;;;;;;;1.52;70.66;100173.03;2267447;70;20473;-72
2021/01/15 13:28:38;;;;;;;1.52;1.41;;;;;;;1.56;70.82;100171.47;2267842;70;20315;-72
2021/01/15 13:31:40;;;;;;;1.74;1.40;;;;;;;1.59;70.36;100171.59;2267225;67;22360;-74
2021/01/15 13:34:42;;;;;;;1.83;1.50;;;;;;;1.53;70.48;100176.47;2267930;70;20984;-75
2021/01/15 13:37:44;;;;;;;1.95;1.46;;;;;;;1.55;70.64;100172.28;2271560;70;20864;-73
2021/01/15 13:40:45;;;;;;;2.61;1.49;;;;;;;1.56;70.11;100174.03;2282462;70;20727;-73
2021/01/15 13:43:47;;;;;;;1.66;1.56;;;;;;;1.54;70.00;100177.34;2282788;70;20704;-73
2021/01/15 13:46:49;;;;;;;3.63;1.70;;;;;;;1.57;70.46;100174.91;2278194;67;20485;-73
2021/01/15 13:49:51;;;;;;;1.89;1.70;;;;;;;1.54;70.28;100175.66;2275298;70;20303;-73
2021/01/15 13:52:56;;;;;;;2.39;2.04;;;;;;;1.56;70.24;100183.41;2275514;70;20318;-73
2021/01/15 13:56:02;;;;;;;3.28;2.13;;;;;;;1.57;70.18;100174.91;2275236;70;21164;-73
2021/01/15 13:59:03;;;;;;;3.10;1.79;;;;;;;1.57;70.42;100180.03;2275589;70;20188;-74
2021/01/15 14:02:06;;;;;;;2.49;1.86;;;;;;;1.57;70.35;100180.03;2274113;67;21573;-73
2021/01/15 14:05:08;;;;;;;2.22;2.03;;;;;;;1.57;71.12;100185.16;2274990;70;20328;-72
2021/01/15 14:08:10;;;;;;;2.30;1.50;;;;;;;1.55;71.42;100179.09;2275190;70;20234;-73
2021/01/15 14:11:12;;;;;;;2.74;1.78;;;;;;;1.55;71.56;100190.19;2275583;70;20320;-73
2021/01/15 14:14:15;;;;;;;2.22;1.96;;;;;;;1.54;71.50;100190.13;2275913;70;20177;-73
2021/01/15 14:17:19;;;;;;;1.94;1.74;;;;;;;1.52;71.74;100195.19;2279338;68;23080;-73
2021/01/15 14:20:21;;;;;;;2.95;2.34;;;;;;;1.53;71.83;100196.94;2282127;70;20391;-73
2021/01/15 14:23:22;;;;;;;2.53;1.89;;;;;;;1.52;71.69;100205.44;2282100;70;20809;-73
2021/01/15 14:26:24;;;;;;;2.90;1.71;;;;;;;1.49;69.79;100207.84;2281750;70;20308;-73
2021/01/15 14:29:26;;;;;;;2.47;1.66;;;;;;;1.48;69.71;100206.97;2283047;70;20286;-72
2021/01/15 14:32:28;;;;;;;1.94;1.74;;;;;;;1.45;69.91;100209.41;2276096;67;53963;-73
2021/01/15 14:35:29;;;;;;;2.71;1.92;;;;;;;1.41;69.94;100216.84;2275875;70;20330;-72
2021/01/15 14:38:31;;;;;;;2.16;1.96;;;;;;;1.40;70.50;100223.66;2275264;70;20774;-74
2021/01/15 14:41:43;;;;;;;3.39;2.14;;;;;;;1.38;69.93;100227.84;2275773;70;20346;-74
2021/01/15 14:44:47;;;;;;;2.18;1.92;;;;;;;1.38;70.70;100224.41;2275287;70;20315;-74
2021/01/15 14:47:48;;;;;;;1.80;1.50;;;;;;;1.34;71.30;100233.63;2274005;67;21724;-74
2021/01/15 14:50:50;;;;;;;3.06;1.94;;;;;;;1.30;70.72;100231.72;2274957;70;20253;-74
2021/01/15 14:53:52;;;;;;;4.16;2.40;;;;;;;1.29;70.56;100227.44;2274412;70;20311;-73
2021/01/15 14:56:54;;;;;;;2.88;1.88;;;;;;;1.24;70.88;100236.53;2276166;70;20275;-74
2021/01/15 14:59:56;;;;;;;2.67;1.89;;;;;;;1.20;70.39;100245.75;2275120;70;20381;-74
2021/01/15 15:02:58;;;;;;;2.40;1.99;;;;;;;1.19;70.97;100250.81;2275446;68;21629;-73